Decoded Metar for LEHC (HUESCA in SPAIN) (IATA:N/A) | Meteo·Mobile Aviation Weather
aviador You're here:

LEHC Decoded Metar

HUESCA in SPAIN
Report Time2018-10-17 03:30:00
UTC Time2018-10-17 04:00:24
Flight Rules vfr VFR
WindVRB at 02 kt
Visibility9999 m
Phenomena:N/A
Clouds:N/A
Expected CloudBase > 800 ft AGL from Temp-Dew spread
CeilingNone
Temp12°C (ISA +1)
Dew Point10°C (88% RH)
AAT11.3°C
QNH1018 hPa
Density Alt1,831 ft
Elevation1,768 ft
Report Wrong Elevation
Raw Report
METAR LEHC 170330Z AUTO VRB02KT CAVOK 12/10 Q1018=

Extra information for LEHC:More info

Metar Taf Metar & Taf Last 4 Metars F.Rules Stats Wind Profile Meteogram Temp Stats Airport Information Weather charts Add Link Nearby VenuesMetar ALERT Operation Metar Decoded Social comments